createdAt,value
2023-06-07T00:00:18.354Z,0.00
2023-06-07T00:01:18.335Z,0.00
2023-06-07T00:02:29.696Z,0.00
2023-06-07T00:03:19.482Z,0.00
2023-06-07T00:04:18.335Z,0.00
2023-06-07T00:05:18.308Z,0.00
2023-06-07T00:06:18.250Z,0.00
2023-06-07T00:07:18.267Z,0.00
2023-06-07T00:08:18.226Z,0.00
2023-06-07T00:09:18.241Z,0.00
2023-06-07T00:10:18.210Z,0.00
2023-06-07T00:11:18.312Z,0.00
2023-06-07T00:12:18.184Z,0.00
2023-06-07T00:13:18.188Z,0.00
2023-06-07T00:14:18.160Z,0.00
2023-06-07T00:15:18.163Z,0.00
2023-06-07T00:16:18.155Z,0.00
2023-06-07T00:17:18.173Z,0.00
2023-06-07T00:18:18.196Z,0.00
2023-06-07T00:19:18.113Z,0.00
2023-06-07T00:20:18.100Z,0.00
2023-06-07T00:21:18.088Z,0.00
2023-06-07T00:22:18.091Z,0.00
2023-06-07T00:23:18.078Z,0.00
2023-06-07T00:24:18.161Z,0.00
2023-06-07T00:25:18.079Z,0.00
2023-06-07T00:26:18.025Z,0.00
2023-06-07T00:27:18.040Z,0.00
2023-06-07T00:28:18.110Z,0.00
2023-06-07T00:29:18.015Z,0.00
2023-06-07T00:30:17.980Z,0.00
2023-06-07T00:31:18.007Z,0.00
2023-06-07T00:32:17.975Z,0.00
2023-06-07T00:33:17.959Z,0.00
2023-06-07T00:34:17.938Z,0.00
2023-06-07T00:35:17.934Z,0.00
2023-06-07T00:36:17.921Z,0.00
2023-06-07T00:37:17.926Z,0.00
2023-06-07T00:38:17.888Z,0.00
2023-06-07T00:39:17.884Z,0.00
2023-06-07T00:40:17.870Z,0.00
2023-06-07T00:41:17.966Z,0.00
2023-06-07T00:42:17.850Z,0.00
2023-06-07T00:43:17.852Z,0.00
2023-06-07T00:44:17.830Z,0.00
2023-06-07T00:45:17.819Z,0.00
2023-06-07T00:46:17.819Z,0.00
2023-06-07T00:47:17.826Z,0.00
2023-06-07T00:48:17.864Z,0.00
2023-06-07T00:49:17.887Z,0.00
2023-06-07T00:50:17.775Z,0.00
2023-06-07T00:51:17.757Z,0.00
2023-06-07T00:52:17.745Z,0.00
2023-06-07T00:53:17.745Z,0.00
2023-06-07T00:54:17.739Z,0.00
2023-06-07T00:55:17.705Z,0.00
2023-06-07T00:56:17.705Z,0.00
2023-06-07T00:57:17.721Z,0.00
2023-06-07T00:58:17.683Z,0.00
2023-06-07T00:59:17.681Z,0.00
2023-06-07T01:00:17.673Z,0.00
2023-06-07T01:01:21.075Z,0.00
2023-06-07T01:02:17.668Z,0.00
2023-06-07T01:03:17.772Z,0.00
2023-06-07T01:04:17.621Z,0.00
2023-06-07T01:05:17.614Z,0.00
2023-06-07T01:06:17.594Z,0.00
2023-06-07T01:07:17.595Z,0.00
2023-06-07T01:08:17.570Z,0.00
2023-06-07T01:09:17.597Z,0.00
2023-06-07T01:10:17.555Z,0.00
2023-06-07T01:11:17.533Z,0.00
2023-06-07T01:12:17.549Z,0.00
2023-06-07T01:13:17.542Z,0.00
2023-06-07T01:14:17.517Z,0.00
2023-06-07T01:15:17.528Z,0.00
2023-06-07T01:16:17.541Z,0.00
2023-06-07T01:17:17.487Z,0.00
2023-06-07T01:18:17.484Z,0.00
2023-06-07T01:19:17.453Z,0.00
2023-06-07T01:20:17.461Z,0.00
2023-06-07T01:21:17.432Z,0.00
2023-06-07T01:22:17.426Z,0.00
2023-06-07T01:23:17.404Z,0.00
2023-06-07T01:24:17.422Z,0.00
2023-06-07T01:25:17.401Z,0.00
2023-06-07T01:26:17.397Z,0.00
2023-06-07T01:27:17.370Z,0.00
2023-06-07T01:28:17.374Z,0.00
2023-06-07T01:29:17.365Z,0.00
2023-06-07T01:30:17.356Z,0.00
2023-06-07T01:31:17.341Z,0.00
2023-06-07T01:32:17.368Z,0.00
2023-06-07T01:33:17.301Z,0.00
2023-06-07T01:34:17.312Z,0.00
2023-06-07T01:35:17.284Z,0.00
2023-06-07T01:36:17.266Z,0.00
2023-06-07T01:37:17.274Z,0.00
2023-06-07T01:38:17.325Z,0.00
2023-06-07T01:39:17.263Z,0.00
2023-06-07T01:40:17.248Z,0.00
2023-06-07T01:41:17.229Z,0.00
2023-06-07T01:42:17.200Z,0.00
2023-06-07T01:43:17.182Z,0.00
2023-06-07T01:44:17.174Z,0.00
2023-06-07T01:45:17.181Z,0.00
2023-06-07T01:46:17.268Z,0.00
2023-06-07T01:47:17.147Z,0.00
2023-06-07T01:48:17.133Z,0.00
2023-06-07T01:49:17.124Z,0.00
2023-06-07T01:50:17.109Z,0.00
2023-06-07T01:51:17.115Z,0.00
2023-06-07T01:52:17.096Z,0.00
2023-06-07T01:53:17.087Z,0.00
2023-06-07T01:54:17.171Z,0.00
2023-06-07T01:55:17.047Z,0.00
2023-06-07T01:56:17.122Z,0.00
2023-06-07T01:57:17.033Z,0.00
2023-06-07T01:58:17.057Z,0.00
2023-06-07T01:59:17.004Z,0.00
2023-06-07T02:00:17.005Z,0.00
2023-06-07T02:01:17.024Z,0.00
2023-06-07T02:02:16.991Z,0.00
2023-06-07T02:03:17.037Z,0.00
2023-06-07T02:04:17.019Z,0.00
2023-06-07T02:05:16.981Z,0.00
2023-06-07T02:06:16.991Z,0.00
2023-06-07T02:07:16.913Z,0.00
2023-06-07T02:08:16.942Z,0.00
2023-06-07T02:09:16.981Z,0.00
2023-06-07T02:10:16.921Z,0.00
2023-06-07T02:11:16.894Z,0.00
2023-06-07T02:12:16.868Z,0.00
2023-06-07T02:13:16.857Z,0.00
2023-06-07T02:14:16.845Z,0.00
2023-06-07T02:15:16.838Z,0.00
2023-06-07T02:16:16.865Z,0.00
2023-06-07T02:17:16.844Z,0.00
2023-06-07T02:18:16.809Z,0.00
2023-06-07T02:19:16.784Z,0.00
2023-06-07T02:20:16.795Z,0.00
2023-06-07T02:21:16.775Z,0.00
2023-06-07T02:22:16.772Z,0.00
2023-06-07T02:23:16.748Z,0.00
2023-06-07T02:24:16.841Z,0.00
2023-06-07T02:25:16.723Z,0.00
2023-06-07T02:26:16.708Z,0.00
2023-06-07T02:27:16.701Z,0.00
2023-06-07T02:28:16.689Z,0.00
2023-06-07T02:29:16.714Z,0.00
2023-06-07T02:30:16.746Z,0.00
2023-06-07T02:31:16.670Z,0.00
2023-06-07T02:32:16.652Z,4.00
2023-06-07T02:33:16.654Z,4.00
2023-06-07T02:34:16.676Z,0.00
2023-06-07T02:35:16.627Z,0.00
2023-06-07T02:36:16.605Z,4.00
2023-06-07T02:37:16.592Z,4.00
2023-06-07T02:38:17.054Z,0.00
2023-06-07T02:39:16.588Z,4.00
2023-06-07T02:40:16.593Z,4.00
2023-06-07T02:41:16.569Z,0.00
2023-06-07T02:42:16.541Z,4.00
2023-06-07T02:43:16.520Z,8.00
2023-06-07T02:44:16.534Z,4.00
2023-06-07T02:45:16.532Z,4.00
2023-06-07T02:46:16.529Z,8.00
2023-06-07T02:47:16.481Z,4.00
2023-06-07T02:48:16.532Z,8.00
2023-06-07T02:49:16.490Z,8.00
2023-06-07T02:50:16.457Z,8.00
2023-06-07T02:51:16.432Z,8.00
2023-06-07T02:52:16.425Z,8.00
2023-06-07T02:53:16.428Z,12.00
2023-06-07T02:54:16.406Z,8.00
2023-06-07T02:55:16.396Z,12.00
2023-06-07T02:56:16.407Z,12.00
2023-06-07T02:57:16.375Z,12.00
2023-06-07T02:58:16.357Z,12.00
2023-06-07T02:59:16.345Z,16.00
2023-06-07T03:00:16.342Z,20.00
2023-06-07T03:01:16.344Z,20.00
2023-06-07T03:02:16.350Z,20.00
2023-06-07T03:03:16.533Z,20.00
2023-06-07T03:04:16.294Z,24.00
2023-06-07T03:05:16.440Z,24.00
2023-06-07T03:06:16.293Z,28.00
2023-06-07T03:07:16.257Z,28.00
2023-06-07T03:08:16.269Z,28.00
2023-06-07T03:09:16.567Z,28.00
2023-06-07T03:10:16.319Z,32.00
2023-06-07T03:11:16.229Z,36.00
2023-06-07T03:12:16.210Z,36.00
2023-06-07T03:13:16.190Z,36.00
2023-06-07T03:14:16.215Z,36.00
2023-06-07T03:15:16.209Z,36.00
2023-06-07T03:16:16.175Z,36.00
2023-06-07T03:17:16.176Z,36.00
2023-06-07T03:18:16.149Z,36.00
2023-06-07T03:19:16.126Z,36.00
2023-06-07T03:20:16.149Z,40.00
2023-06-07T03:21:16.143Z,36.00
2023-06-07T03:22:16.097Z,36.00
2023-06-07T03:23:16.084Z,36.00
2023-06-07T03:24:16.161Z,36.00
2023-06-07T03:25:16.092Z,40.00
2023-06-07T03:26:16.074Z,36.00
2023-06-07T03:27:16.041Z,40.00
2023-06-07T03:28:16.034Z,36.00
2023-06-07T03:29:16.048Z,40.00
2023-06-07T03:30:16.035Z,40.00
2023-06-07T03:31:16.046Z,40.00
2023-06-07T03:32:15.991Z,40.00
2023-06-07T03:33:15.980Z,40.00
2023-06-07T03:34:15.973Z,40.00
2023-06-07T03:35:15.983Z,40.00
2023-06-07T03:36:15.949Z,40.00
2023-06-07T03:37:16.052Z,44.00
2023-06-07T03:38:15.928Z,40.00
2023-06-07T03:39:15.920Z,44.00
2023-06-07T03:40:15.923Z,44.00
2023-06-07T03:41:15.888Z,52.00
2023-06-07T03:42:15.884Z,52.00
2023-06-07T03:43:15.866Z,56.00
2023-06-07T03:44:15.862Z,64.00
2023-06-07T03:45:15.868Z,64.00
2023-06-07T03:46:15.845Z,72.00
2023-06-07T03:47:15.826Z,76.00
2023-06-07T03:48:15.918Z,84.00
2023-06-07T03:49:15.930Z,88.00
2023-06-07T03:50:15.819Z,100.00
2023-06-07T03:51:15.802Z,104.00
2023-06-07T03:52:15.770Z,112.00
2023-06-07T03:53:15.800Z,116.00
2023-06-07T03:54:15.747Z,120.00
2023-06-07T03:55:16.371Z,124.00
2023-06-07T03:56:15.749Z,128.00
2023-06-07T03:57:15.727Z,128.00
2023-06-07T03:58:15.725Z,124.00
2023-06-07T03:59:15.687Z,128.00
2023-06-07T04:00:15.688Z,128.00
2023-06-07T04:01:15.664Z,132.00
2023-06-07T04:02:15.678Z,128.00
2023-06-07T04:03:15.712Z,128.00
2023-06-07T04:04:15.834Z,132.00
2023-06-07T04:05:15.612Z,132.00
2023-06-07T04:06:15.685Z,132.00
2023-06-07T04:07:15.594Z,136.00
2023-06-07T04:08:15.613Z,136.00
2023-06-07T04:09:15.597Z,132.00
2023-06-07T04:10:15.580Z,128.00
2023-06-07T04:11:15.572Z,128.00
2023-06-07T04:12:15.562Z,132.00
2023-06-07T04:13:15.528Z,132.00
2023-06-07T04:14:15.552Z,136.00
2023-06-07T04:15:15.627Z,136.00
2023-06-07T04:16:15.558Z,132.00
2023-06-07T04:17:15.508Z,136.00
2023-06-07T04:18:15.480Z,136.00
2023-06-07T04:19:18.043Z,136.00
2023-06-07T04:20:15.456Z,136.00
2023-06-07T04:21:15.491Z,132.00
2023-06-07T04:22:15.437Z,132.00
2023-06-07T04:23:15.416Z,136.00
2023-06-07T04:24:16.558Z,136.00
2023-06-07T04:25:15.430Z,136.00
2023-06-07T04:26:15.389Z,136.00
2023-06-07T04:27:15.400Z,136.00
2023-06-07T04:28:15.365Z,140.00
2023-06-07T04:29:15.347Z,140.00
2023-06-07T04:30:15.361Z,140.00
2023-06-07T04:31:15.348Z,144.00
2023-06-07T04:32:15.516Z,148.00
2023-06-07T04:33:15.342Z,148.00
2023-06-07T04:34:15.297Z,152.00
2023-06-07T04:35:15.289Z,156.00
2023-06-07T04:36:15.276Z,160.00
2023-06-07T04:37:15.257Z,164.00
2023-06-07T04:38:15.269Z,172.00
2023-06-07T04:39:15.247Z,176.00
2023-06-07T04:40:15.256Z,184.00
2023-06-07T04:41:15.242Z,192.00
2023-06-07T04:42:15.206Z,196.00
2023-06-07T04:43:15.227Z,204.00
2023-06-07T04:44:15.184Z,208.00
2023-06-07T04:45:15.186Z,216.00
2023-06-07T04:46:15.176Z,220.00
2023-06-07T04:47:15.165Z,224.00
2023-06-07T04:48:15.137Z,228.00
2023-06-07T04:49:15.122Z,236.00
2023-06-07T04:50:15.145Z,240.00
2023-06-07T04:51:15.118Z,244.00
2023-06-07T04:52:15.119Z,252.00
2023-06-07T04:53:15.073Z,260.00
2023-06-07T04:54:15.070Z,264.00
2023-06-07T04:55:15.072Z,268.00
2023-06-07T04:56:15.057Z,276.00
2023-06-07T04:57:15.106Z,284.00
2023-06-07T04:58:15.028Z,292.00
2023-06-07T04:59:15.029Z,300.00
2023-06-07T05:00:15.118Z,312.00
2023-06-07T05:01:15.000Z,324.00
2023-06-07T05:02:15.002Z,332.00
2023-06-07T05:03:14.985Z,336.00
2023-06-07T05:04:15.059Z,336.00
2023-06-07T05:05:15.023Z,336.00
2023-06-07T05:06:14.960Z,336.00
2023-06-07T05:07:14.995Z,336.00
2023-06-07T05:08:14.919Z,332.00
2023-06-07T05:09:14.927Z,336.00
2023-06-07T05:10:15.011Z,336.00
2023-06-07T05:11:14.889Z,328.00
2023-06-07T05:12:14.868Z,332.00
2023-06-07T05:13:14.882Z,328.00
2023-06-07T05:14:14.844Z,324.00
2023-06-07T05:15:14.873Z,320.00
2023-06-07T05:16:14.871Z,316.00
2023-06-07T05:17:14.813Z,308.00
2023-06-07T05:18:14.802Z,304.00
2023-06-07T05:19:14.845Z,300.00
2023-06-07T05:20:14.817Z,304.00
2023-06-07T05:21:14.796Z,308.00
2023-06-07T05:22:14.761Z,316.00
2023-06-07T05:23:14.750Z,324.00
2023-06-07T05:24:17.405Z,332.00
2023-06-07T05:25:14.729Z,340.00
2023-06-07T05:26:14.715Z,344.00
2023-06-07T05:27:14.727Z,356.00
2023-06-07T05:28:14.693Z,376.00
2023-06-07T05:29:14.712Z,392.00
2023-06-07T05:30:14.669Z,412.00
2023-06-07T05:31:14.705Z,436.00
2023-06-07T05:32:14.651Z,456.00
2023-06-07T05:33:14.651Z,476.00
2023-06-07T05:34:14.625Z,496.00
2023-06-07T05:35:14.636Z,512.00
2023-06-07T05:36:14.607Z,524.00
2023-06-07T05:37:14.594Z,536.00
2023-06-07T05:38:14.608Z,552.00
2023-06-07T05:39:14.581Z,572.00
2023-06-07T05:40:14.566Z,588.00
2023-06-07T05:41:14.552Z,600.00
2023-06-07T05:42:14.540Z,608.00
2023-06-07T05:43:14.555Z,612.00
2023-06-07T05:44:14.539Z,620.00
2023-06-07T05:45:14.534Z,624.00
2023-06-07T05:46:14.491Z,628.00
2023-06-07T05:47:14.719Z,640.00
2023-06-07T05:48:14.528Z,648.00
2023-06-07T05:49:14.474Z,656.00
2023-06-07T05:50:14.477Z,660.00
2023-06-07T05:51:14.455Z,664.00
2023-06-07T05:52:14.463Z,672.00
2023-06-07T05:53:14.521Z,688.00
2023-06-07T05:54:14.424Z,696.00
2023-06-07T05:55:14.405Z,700.00
2023-06-07T05:56:15.659Z,704.00
2023-06-07T05:57:15.058Z,712.00
2023-06-07T05:58:14.367Z,720.00
2023-06-07T05:59:14.398Z,732.00
2023-06-07T06:00:14.334Z,744.00
2023-06-07T06:01:14.433Z,756.00
2023-06-07T06:02:16.338Z,772.00
2023-06-07T06:03:14.348Z,792.00
2023-06-07T06:04:14.282Z,808.00
2023-06-07T06:05:14.296Z,828.00
2023-06-07T06:06:14.285Z,848.00
2023-06-07T06:07:14.388Z,872.00
2023-06-07T06:08:14.270Z,900.00
2023-06-07T06:09:14.238Z,920.00
2023-06-07T06:10:14.226Z,932.00
2023-06-07T06:11:14.212Z,944.00
2023-06-07T06:12:14.198Z,956.00
2023-06-07T06:13:14.231Z,972.00
2023-06-07T06:14:14.174Z,992.00
2023-06-07T06:15:14.170Z,1012.00
2023-06-07T06:16:14.179Z,1040.00
2023-06-07T06:17:14.273Z,1068.00
2023-06-07T06:18:14.180Z,1096.00
2023-06-07T06:19:14.121Z,1128.00
2023-06-07T06:20:14.101Z,1164.00
2023-06-07T06:21:14.122Z,1192.00
2023-06-07T06:22:14.084Z,1224.00
2023-06-07T06:23:14.088Z,1252.00
2023-06-07T06:24:14.171Z,1280.00
2023-06-07T06:25:14.055Z,1300.00
2023-06-07T06:26:14.056Z,1332.00
2023-06-07T06:27:14.031Z,1360.00
2023-06-07T06:28:14.061Z,1384.00
2023-06-07T06:29:14.009Z,1408.00
2023-06-07T06:30:13.992Z,1428.00
2023-06-07T06:31:14.049Z,1448.00
2023-06-07T06:32:13.975Z,1468.00
2023-06-07T06:33:14.093Z,1496.00
2023-06-07T06:34:13.955Z,1520.00
2023-06-07T06:35:13.949Z,1540.00
2023-06-07T06:36:13.925Z,1564.00
2023-06-07T06:37:13.932Z,1592.00
2023-06-07T06:38:13.964Z,1640.00
2023-06-07T06:39:13.897Z,1688.00
2023-06-07T06:40:13.989Z,1740.00
2023-06-07T06:41:13.867Z,1796.00
2023-06-07T06:42:13.885Z,1852.00
2023-06-07T06:43:13.868Z,1920.00
2023-06-07T06:44:13.828Z,2008.00
2023-06-07T06:45:13.845Z,2100.00
2023-06-07T06:46:16.569Z,2212.00
2023-06-07T06:47:13.951Z,2312.00
2023-06-07T06:48:13.828Z,2400.00
2023-06-07T06:49:13.883Z,2472.00
2023-06-07T06:50:30.461Z,2540.00
2023-06-07T06:51:14.754Z,2604.00
2023-06-07T06:52:13.751Z,2664.00
2023-06-07T06:53:13.736Z,2732.00
2023-06-07T06:54:14.577Z,2780.00
2023-06-07T06:55:13.755Z,2820.00
2023-06-07T06:56:13.759Z,2820.00
2023-06-07T06:57:13.696Z,2796.00
2023-06-07T06:58:13.671Z,2768.00
2023-06-07T06:59:13.731Z,2736.00
2023-06-07T07:00:13.647Z,2728.00
2023-06-07T07:01:13.664Z,2736.00
2023-06-07T07:02:13.765Z,2740.00
2023-06-07T07:03:13.661Z,2744.00
2023-06-07T07:04:13.710Z,2760.00
2023-06-07T07:05:13.775Z,2792.00
2023-06-07T07:06:13.620Z,2848.00
2023-06-07T07:07:13.636Z,2912.00
2023-06-07T07:08:13.587Z,2968.00
2023-06-07T07:09:13.656Z,3032.00
2023-06-07T07:10:13.581Z,3084.00
2023-06-07T07:11:13.638Z,3176.00
2023-06-07T07:12:13.564Z,3316.00
2023-06-07T07:13:13.517Z,3440.00
2023-06-07T07:14:13.518Z,3580.00
2023-06-07T07:15:13.516Z,3684.00
2023-06-07T07:16:13.496Z,3788.00
2023-06-07T07:17:13.521Z,3892.00
2023-06-07T07:18:13.463Z,4008.00
2023-06-07T07:19:13.448Z,4128.00
2023-06-07T07:20:13.523Z,4236.00
2023-06-07T07:21:13.523Z,4332.00
2023-06-07T07:22:13.413Z,4336.00
2023-06-07T07:23:13.404Z,4356.00
2023-06-07T07:24:13.563Z,4432.00
2023-06-07T07:25:13.384Z,4480.00
2023-06-07T07:26:13.368Z,4516.00
2023-06-07T07:27:13.468Z,4552.00
2023-06-07T07:28:13.395Z,4576.00
2023-06-07T07:29:13.351Z,4588.00
2023-06-07T07:30:13.343Z,4556.00
2023-06-07T07:31:13.309Z,4492.00
2023-06-07T07:32:13.328Z,4436.00
2023-06-07T07:33:16.069Z,4424.00
2023-06-07T07:34:13.391Z,4452.00
2023-06-07T07:35:13.442Z,4504.00
2023-06-07T07:36:13.258Z,4544.00
2023-06-07T07:37:13.288Z,4592.00
2023-06-07T07:38:13.253Z,4616.00
2023-06-07T07:39:13.230Z,4672.00
2023-06-07T07:40:13.277Z,4700.00
2023-06-07T07:41:13.198Z,4688.00
2023-06-07T07:42:13.186Z,4632.00
2023-06-07T07:43:13.275Z,4588.00
2023-06-07T07:44:13.308Z,4536.00
2023-06-07T07:45:13.184Z,4516.00
2023-06-07T07:46:13.167Z,4492.00
2023-06-07T07:47:13.214Z,4468.00
2023-06-07T07:48:13.163Z,4456.00
2023-06-07T07:49:13.109Z,4464.00
2023-06-07T07:50:13.114Z,4488.00
2023-06-07T07:51:13.089Z,4536.00
2023-06-07T07:52:13.068Z,4552.00
2023-06-07T07:53:13.102Z,4572.00
2023-06-07T07:54:13.048Z,4580.00
2023-06-07T07:55:13.041Z,4604.00
2023-06-07T07:56:13.028Z,4632.00
2023-06-07T07:57:13.046Z,4656.00
2023-06-07T07:58:13.005Z,4704.00
2023-06-07T07:59:13.048Z,4740.00
2023-06-07T08:00:13.034Z,4784.00
2023-06-07T08:01:12.984Z,4864.00
2023-06-07T08:02:13.017Z,5052.00
2023-06-07T08:03:13.207Z,5180.00
2023-06-07T08:04:13.069Z,4980.00
2023-06-07T08:05:12.959Z,5128.00
2023-06-07T08:06:12.907Z,4724.00
2023-06-07T08:07:12.915Z,4644.00
2023-06-07T08:08:12.922Z,4612.00
2023-06-07T08:09:13.153Z,4676.00
2023-06-07T08:10:12.894Z,4700.00
2023-06-07T08:11:12.868Z,4644.00
2023-06-07T08:12:12.856Z,4628.00
2023-06-07T08:13:12.854Z,4628.00
2023-06-07T08:14:12.874Z,4640.00
2023-06-07T08:15:12.835Z,4680.00
2023-06-07T08:16:12.870Z,4692.00
2023-06-07T08:17:12.832Z,4644.00
2023-06-07T08:18:12.775Z,4668.00
2023-06-07T08:19:12.807Z,4712.00
2023-06-07T08:20:12.844Z,4744.00
2023-06-07T08:21:12.780Z,4744.00
2023-06-07T08:22:12.769Z,4796.00
2023-06-07T08:23:12.798Z,4824.00
2023-06-07T08:24:13.005Z,4616.00
2023-06-07T08:25:12.879Z,4856.00
2023-06-07T08:26:12.712Z,4868.00
2023-06-07T08:27:12.705Z,4796.00
2023-06-07T08:28:12.661Z,4660.00
2023-06-07T08:29:12.658Z,4508.00
2023-06-07T08:30:12.667Z,4440.00
2023-06-07T08:31:12.706Z,4352.00
2023-06-07T08:32:12.634Z,4308.00
2023-06-07T08:33:12.686Z,4324.00
2023-06-07T08:34:12.593Z,4332.00
2023-06-07T08:35:12.604Z,4384.00
2023-06-07T08:36:12.605Z,4320.00
2023-06-07T08:37:12.585Z,4288.00
2023-06-07T08:38:12.555Z,4336.00
2023-06-07T08:39:12.547Z,4404.00
2023-06-07T08:40:12.554Z,4416.00
2023-06-07T08:41:12.857Z,4580.00
2023-06-07T08:42:12.509Z,4508.00
2023-06-07T08:43:12.516Z,4440.00
2023-06-07T08:44:12.485Z,4420.00
2023-06-07T08:45:12.479Z,4428.00
2023-06-07T08:46:12.494Z,4460.00
2023-06-07T08:47:12.467Z,4488.00
2023-06-07T08:48:12.491Z,4412.00
2023-06-07T08:49:12.454Z,4496.00
2023-06-07T08:50:12.416Z,4468.00
2023-06-07T08:51:12.434Z,4520.00
2023-06-07T08:52:16.162Z,4480.00
2023-06-07T08:53:12.441Z,4460.00
2023-06-07T08:54:12.370Z,4448.00
2023-06-07T08:55:12.374Z,4408.00
2023-06-07T08:56:12.346Z,4368.00
2023-06-07T08:57:12.591Z,4312.00
2023-06-07T08:58:12.328Z,4340.00
2023-06-07T08:59:12.331Z,4312.00
2023-06-07T09:00:12.308Z,4288.00
2023-06-07T09:01:12.322Z,4252.00
2023-06-07T09:02:12.282Z,4248.00
2023-06-07T09:03:12.361Z,4208.00
2023-06-07T09:04:12.351Z,4180.00
2023-06-07T09:05:12.266Z,4148.00
2023-06-07T09:06:12.399Z,4168.00
2023-06-07T09:07:12.226Z,4188.00
2023-06-07T09:08:12.238Z,4180.00
2023-06-07T09:09:12.218Z,4188.00
2023-06-07T09:10:15.124Z,4200.00
2023-06-07T09:11:12.202Z,4192.00
2023-06-07T09:12:12.175Z,4188.00
2023-06-07T09:13:12.249Z,4220.00
2023-06-07T09:14:12.173Z,4236.00
2023-06-07T09:15:12.135Z,4272.00
2023-06-07T09:16:12.234Z,4268.00
2023-06-07T09:17:12.256Z,4216.00
2023-06-07T09:18:12.321Z,4248.00
2023-06-07T09:19:12.097Z,4236.00
2023-06-07T09:20:12.339Z,4216.00
2023-06-07T09:21:12.081Z,4256.00
2023-06-07T09:22:12.092Z,4244.00
2023-06-07T09:23:12.054Z,4264.00
2023-06-07T09:24:12.112Z,4284.00
2023-06-07T09:25:12.046Z,4288.00
2023-06-07T09:26:12.027Z,4288.00
2023-06-07T09:27:12.086Z,4256.00
2023-06-07T09:28:12.003Z,4300.00
2023-06-07T09:29:12.065Z,4340.00
2023-06-07T09:30:11.978Z,4348.00
2023-06-07T09:31:12.012Z,4328.00
2023-06-07T09:32:11.978Z,4344.00
2023-06-07T09:33:12.017Z,4356.00
2023-06-07T09:34:11.950Z,4360.00
2023-06-07T09:35:11.946Z,4284.00
2023-06-07T09:36:11.952Z,4280.00
2023-06-07T09:37:11.894Z,4264.00
2023-06-07T09:38:11.965Z,4300.00
2023-06-07T09:39:11.929Z,4372.00
2023-06-07T09:40:11.917Z,4316.00
2023-06-07T09:41:11.876Z,4248.00
2023-06-07T09:42:11.848Z,4140.00
2023-06-07T09:43:11.834Z,4168.00
2023-06-07T09:44:11.827Z,4192.00
2023-06-07T09:45:11.907Z,4196.00
2023-06-07T09:46:11.934Z,4136.00
2023-06-07T09:47:11.860Z,4104.00
2023-06-07T09:48:11.820Z,4044.00
2023-06-07T09:49:11.812Z,3888.00
2023-06-07T09:50:11.775Z,3896.00
2023-06-07T09:51:11.749Z,3488.00
2023-06-07T09:52:11.734Z,3340.00
2023-06-07T09:53:11.755Z,3288.00
2023-06-07T09:54:11.715Z,3232.00
2023-06-07T09:55:11.735Z,3200.00
2023-06-07T09:56:11.690Z,3264.00
2023-06-07T09:57:11.738Z,3232.00
2023-06-07T09:58:11.709Z,3116.00
2023-06-07T09:59:11.719Z,3100.00
2023-06-07T10:00:11.662Z,3084.00
2023-06-07T10:01:11.651Z,3088.00
2023-06-07T10:02:11.622Z,3088.00
2023-06-07T10:03:11.756Z,3084.00
2023-06-07T10:04:11.669Z,3036.00
2023-06-07T10:05:11.636Z,2996.00
2023-06-07T10:06:11.646Z,2940.00
2023-06-07T10:07:11.624Z,2912.00
2023-06-07T10:08:11.594Z,2872.00
2023-06-07T10:09:11.549Z,2824.00
2023-06-07T10:10:12.026Z,2768.00
2023-06-07T10:11:11.551Z,2700.00
2023-06-07T10:12:11.559Z,2624.00
2023-06-07T10:13:11.509Z,2516.00
2023-06-07T10:14:11.573Z,2404.00
2023-06-07T10:15:11.493Z,2288.00
2023-06-07T10:16:11.608Z,2176.00
2023-06-07T10:17:11.666Z,2076.00
2023-06-07T10:18:11.588Z,1992.00
2023-06-07T10:19:11.484Z,1904.00
2023-06-07T10:20:11.425Z,1840.00
2023-06-07T10:21:11.440Z,1776.00
2023-06-07T10:22:11.414Z,1728.00
2023-06-07T10:23:11.431Z,1696.00
2023-06-07T10:24:11.463Z,1672.00
2023-06-07T10:25:11.395Z,1664.00
2023-06-07T10:26:11.362Z,1644.00
2023-06-07T10:27:11.397Z,1628.00
2023-06-07T10:28:11.382Z,1620.00
2023-06-07T10:29:11.316Z,1580.00
2023-06-07T10:30:11.331Z,1536.00
2023-06-07T10:31:11.295Z,1492.00
2023-06-07T10:32:11.350Z,1432.00
2023-06-07T10:33:11.336Z,1380.00
2023-06-07T10:34:11.283Z,1340.00
2023-06-07T10:35:13.622Z,1296.00
2023-06-07T10:36:11.243Z,1264.00
2023-06-07T10:37:11.266Z,1260.00
2023-06-07T10:38:11.244Z,1268.00
2023-06-07T10:39:11.230Z,1284.00
2023-06-07T10:40:11.245Z,1312.00
2023-06-07T10:41:13.354Z,1324.00
2023-06-07T10:42:11.226Z,1324.00
2023-06-07T10:43:11.177Z,1328.00
2023-06-07T10:44:11.160Z,1328.00
2023-06-07T10:45:11.137Z,1328.00
2023-06-07T10:46:11.240Z,1324.00
2023-06-07T10:47:11.337Z,1328.00
2023-06-07T10:48:11.207Z,1320.00
2023-06-07T10:49:11.289Z,1292.00
2023-06-07T10:50:11.374Z,1244.00
2023-06-07T10:51:11.089Z,1176.00
2023-06-07T10:52:11.085Z,1092.00
2023-06-07T10:53:13.193Z,1000.00
2023-06-07T10:54:11.047Z,916.00
2023-06-07T10:55:11.128Z,836.00
2023-06-07T10:56:11.024Z,768.00
2023-06-07T10:57:11.070Z,712.00
2023-06-07T10:58:11.072Z,668.00
2023-06-07T10:59:10.988Z,628.00
2023-06-07T11:00:10.988Z,592.00
2023-06-07T11:01:11.010Z,560.00
2023-06-07T11:02:10.987Z,536.00
2023-06-07T11:03:11.052Z,512.00
2023-06-07T11:04:11.252Z,480.00
2023-06-07T11:05:11.160Z,432.00
2023-06-07T11:06:10.934Z,392.00
2023-06-07T11:07:10.890Z,376.00
2023-06-07T11:08:10.889Z,376.00
2023-06-07T11:09:10.946Z,384.00
2023-06-07T11:10:11.154Z,392.00
2023-06-07T11:11:10.863Z,384.00
2023-06-07T11:12:10.874Z,376.00
2023-06-07T11:13:10.838Z,356.00
2023-06-07T11:14:10.843Z,328.00
2023-06-07T11:15:10.988Z,280.00
2023-06-07T11:16:10.866Z,208.00
2023-06-07T11:17:10.851Z,212.00
2023-06-07T11:18:15.508Z,260.00
2023-06-07T11:19:11.825Z,332.00
2023-06-07T11:20:10.818Z,400.00
2023-06-07T11:21:10.836Z,436.00
2023-06-07T11:22:10.808Z,460.00
2023-06-07T11:23:10.759Z,468.00
2023-06-07T11:24:10.750Z,508.00
2023-06-07T11:25:10.733Z,572.00
2023-06-07T11:26:10.685Z,628.00
2023-06-07T11:27:10.685Z,680.00
2023-06-07T11:28:10.783Z,720.00
2023-06-07T11:29:10.668Z,740.00
2023-06-07T11:30:10.667Z,844.00
2023-06-07T11:31:10.737Z,1032.00
2023-06-07T11:32:10.660Z,1284.00
2023-06-07T11:33:10.709Z,1528.00
2023-06-07T11:34:10.599Z,1740.00
2023-06-07T11:35:16.892Z,1884.00
2023-06-07T11:36:11.580Z,1952.00
2023-06-07T11:37:10.587Z,1988.00
2023-06-07T11:38:10.558Z,2008.00
2023-06-07T11:39:10.563Z,2016.00
2023-06-07T11:40:10.672Z,2032.00
2023-06-07T11:41:10.534Z,2048.00
2023-06-07T11:42:10.506Z,2052.00
2023-06-07T11:43:10.523Z,2056.00
2023-06-07T11:44:10.484Z,2032.00
2023-06-07T11:45:10.504Z,2000.00
2023-06-07T11:46:10.465Z,1988.00
2023-06-07T11:47:10.571Z,1960.00
2023-06-07T11:48:10.516Z,1944.00
2023-06-07T11:49:10.554Z,1928.00
2023-06-07T11:50:10.464Z,1912.00
2023-06-07T11:51:10.405Z,1896.00
2023-06-07T11:52:10.449Z,1880.00
2023-06-07T11:53:13.097Z,1888.00
2023-06-07T11:54:10.375Z,1908.00
2023-06-07T11:55:10.361Z,1916.00
2023-06-07T11:56:10.376Z,1924.00
2023-06-07T11:57:10.331Z,1912.00
2023-06-07T11:58:10.356Z,1892.00
2023-06-07T11:59:10.314Z,1880.00
2023-06-07T12:00:10.331Z,1876.00
2023-06-07T12:01:10.295Z,1868.00
2023-06-07T12:02:10.303Z,1868.00
2023-06-07T12:03:10.416Z,1892.00
2023-06-07T12:04:10.310Z,1916.00
2023-06-07T12:05:10.238Z,1932.00
2023-06-07T12:06:10.263Z,1952.00
2023-06-07T12:07:10.217Z,1980.00
2023-06-07T12:08:10.220Z,2024.00
2023-06-07T12:09:10.294Z,2080.00
2023-06-07T12:10:10.209Z,2140.00
2023-06-07T12:11:10.184Z,2208.00
2023-06-07T12:12:10.170Z,2280.00
2023-06-07T12:13:10.148Z,2360.00
2023-06-07T12:14:10.143Z,2416.00
2023-06-07T12:15:10.148Z,2448.00
2023-06-07T12:16:10.199Z,2484.00
2023-06-07T12:17:10.199Z,2540.00
2023-06-07T12:18:10.150Z,2592.00
2023-06-07T12:19:10.087Z,2648.00
2023-06-07T12:20:10.231Z,2704.00
2023-06-07T12:21:10.150Z,2728.00
2023-06-07T12:22:10.080Z,2728.00
2023-06-07T12:23:10.063Z,2712.00
2023-06-07T12:24:10.264Z,2680.00
2023-06-07T12:25:10.060Z,2652.00
2023-06-07T12:26:10.238Z,2628.00
2023-06-07T12:27:10.000Z,2616.00
2023-06-07T12:28:09.990Z,2616.00
2023-06-07T12:29:10.163Z,2632.00
2023-06-07T12:30:10.164Z,2664.00